To NAV CANADA Home Page Login to a new session Search on AWWS site Feedback and Comments Disclaimer Vers la page française équivalente Tips FAQ What's new on the site To the Forecasts and Observations / NOTAM section To "File a Flight Plan" website Publications and other links Update of the User's profile FIC Telephone Numbers My Weather Data Folder Route Weather Data Regional Weather Data Local Weather Data To the Forecasts and Observations / NOTAM section
Request Generated 12/04/2016 at 22:23:51 UTC . Weather information available at that time is displayed.

METAR/TAF

NATASHQUAN/QC    (show WxCam)

METAR CYNA 042200Z AUTO 31008KT 9SM CLR M11/M14 A2993 RMK SLP136=
METAR CYNA 042100Z AUTO 31006KT 9SM BKN028 M09/M13 A2992 RMK SLP134=
METAR CYNA 042000Z AUTO 31007KT 9SM CLR M08/M12 A2990 RMK SLP127=

TAF CYNA 041939Z 0420/0508 36012KT P6SM SKC
BECMG 0421/0423 31012KT
RMK FCST BASED ON AUTO OBS. NXT FCST BY 050200Z=
Your time UTC time
Weather data provided by Environment Canada and NAV CANADA